createdAt,value
2023-03-02T00:01:09.515Z,406.90
2023-03-02T00:03:41.135Z,362.87
2023-03-02T00:06:09.937Z,345.30
2023-03-02T00:08:38.225Z,354.80
2023-03-02T00:11:05.483Z,291.93
2023-03-02T00:13:34.347Z,272.67
2023-03-02T00:16:01.310Z,284.40
2023-03-02T00:18:28.268Z,299.00
2023-03-02T00:20:55.386Z,296.30
2023-03-02T00:23:22.232Z,235.00
2023-03-02T00:25:49.028Z,204.03
2023-03-02T00:28:16.612Z,174.63
2023-03-02T00:30:43.454Z,177.83
2023-03-02T00:33:10.465Z,176.80
2023-03-02T00:35:41.366Z,189.87
2023-03-02T00:38:08.982Z,176.70
2023-03-02T00:40:36.467Z,189.30
2023-03-02T00:43:03.736Z,185.40
2023-03-02T00:45:30.913Z,190.20
2023-03-02T00:47:57.756Z,184.80
2023-03-02T00:50:24.667Z,183.73
2023-03-02T00:52:51.707Z,198.47
2023-03-02T00:55:18.669Z,193.80
2023-03-02T00:57:54.903Z,190.87
2023-03-02T01:00:23.291Z,184.73
2023-03-02T01:02:50.817Z,187.07
2023-03-02T01:05:18.014Z,179.43
2023-03-02T01:07:45.004Z,167.80
2023-03-02T01:10:12.252Z,175.17
2023-03-02T01:12:39.270Z,174.67
2023-03-02T01:15:06.996Z,163.43
2023-03-02T01:17:33.851Z,173.40
2023-03-02T01:20:00.683Z,177.77
2023-03-02T01:22:27.512Z,185.33
2023-03-02T01:24:54.407Z,176.57
2023-03-02T01:27:21.469Z,182.10
2023-03-02T01:29:48.289Z,173.77
2023-03-02T01:32:15.164Z,167.27
2023-03-02T01:34:42.163Z,173.00
2023-03-02T01:37:08.988Z,164.30
2023-03-02T01:39:35.829Z,179.87
2023-03-02T01:42:02.664Z,176.47
2023-03-02T01:44:57.330Z,178.03
2023-03-02T01:47:26.876Z,166.70
2023-03-02T01:49:59.138Z,176.93
2023-03-02T01:52:27.072Z,172.00
2023-03-02T01:54:58.551Z,178.00
2023-03-02T01:57:30.636Z,171.20
2023-03-02T02:00:01.986Z,179.17
2023-03-02T02:02:29.255Z,174.07
2023-03-02T02:04:57.034Z,185.30
2023-03-02T02:07:23.990Z,186.77
2023-03-02T02:09:52.767Z,186.63
2023-03-02T02:12:22.772Z,170.30
2023-03-02T02:14:50.491Z,192.20
2023-03-02T02:17:19.116Z,192.93
2023-03-02T02:19:48.975Z,197.27
2023-03-02T02:22:27.042Z,184.07
2023-03-02T02:24:58.963Z,178.80
2023-03-02T02:27:33.688Z,191.53
2023-03-02T02:30:04.485Z,185.90
2023-03-02T02:32:36.934Z,190.13
2023-03-02T02:35:12.534Z,192.23
2023-03-02T02:37:52.076Z,178.80
2023-03-02T02:40:40.290Z,168.53
2023-03-02T02:43:09.684Z,177.07
2023-03-02T02:45:36.672Z,178.30
2023-03-02T02:48:03.646Z,170.40
2023-03-02T02:50:33.789Z,165.20
2023-03-02T02:53:19.453Z,168.70
2023-03-02T02:55:52.933Z,172.63
2023-03-02T02:58:32.669Z,164.87
2023-03-02T03:01:00.818Z,163.40
2023-03-02T03:03:31.418Z,161.70
2023-03-02T03:06:01.252Z,157.33
2023-03-02T03:08:46.474Z,152.30
2023-03-02T03:11:19.547Z,155.60
2023-03-02T03:13:47.035Z,163.83
2023-03-02T03:16:16.863Z,166.20
2023-03-02T03:18:47.107Z,152.50
2023-03-02T03:21:13.982Z,157.93
2023-03-02T03:23:40.829Z,152.47
2023-03-02T03:26:07.709Z,142.13
2023-03-02T03:28:35.801Z,135.23
2023-03-02T03:31:03.010Z,147.97
2023-03-02T03:33:29.933Z,152.70
2023-03-02T03:35:56.803Z,145.07
2023-03-02T03:38:23.814Z,134.47
2023-03-02T03:40:50.629Z,138.87
2023-03-02T03:43:17.521Z,138.07
2023-03-02T03:45:44.452Z,147.97
2023-03-02T03:48:11.355Z,152.37
2023-03-02T03:50:38.286Z,147.87
2023-03-02T03:53:05.233Z,160.07
2023-03-02T03:55:32.127Z,143.20
2023-03-02T03:57:58.940Z,146.70
2023-03-02T04:00:25.961Z,148.13
2023-03-02T04:02:52.966Z,150.97
2023-03-02T04:05:20.257Z,147.40
2023-03-02T04:07:47.112Z,151.70
2023-03-02T04:10:14.030Z,150.27
2023-03-02T04:12:41.588Z,160.00
2023-03-02T04:15:10.735Z,154.80
2023-03-02T04:17:37.586Z,148.80
2023-03-02T04:20:07.842Z,154.77
2023-03-02T04:22:34.669Z,156.13
2023-03-02T04:25:01.712Z,159.03
2023-03-02T04:27:28.571Z,168.67
2023-03-02T04:29:55.421Z,150.10
2023-03-02T04:32:22.282Z,148.83
2023-03-02T04:34:49.129Z,157.97
2023-03-02T04:37:16.168Z,151.00
2023-03-02T04:39:44.960Z,151.67
2023-03-02T04:42:11.822Z,141.70
2023-03-02T04:44:38.740Z,137.27
2023-03-02T04:47:05.611Z,135.77
2023-03-02T04:49:32.431Z,137.43
2023-03-02T04:51:59.237Z,149.57
2023-03-02T04:54:27.066Z,133.90
2023-03-02T04:56:54.493Z,139.43
2023-03-02T04:59:26.111Z,142.37
2023-03-02T05:01:58.508Z,135.10
2023-03-02T05:04:26.718Z,125.43
2023-03-02T05:06:53.964Z,135.07
2023-03-02T05:09:27.142Z,130.03
2023-03-02T05:11:59.726Z,130.10
2023-03-02T05:14:26.802Z,171.17
2023-03-02T05:16:54.494Z,239.87
2023-03-02T05:19:21.389Z,295.23
2023-03-02T05:21:48.390Z,314.80
2023-03-02T05:24:15.290Z,294.07
2023-03-02T05:26:42.323Z,209.27
2023-03-02T05:29:09.474Z,187.00
2023-03-02T05:31:40.742Z,175.90
2023-03-02T05:34:11.518Z,157.00
2023-03-02T05:36:38.970Z,154.57
2023-03-02T05:39:07.169Z,149.67
2023-03-02T05:41:34.670Z,157.90
2023-03-02T05:44:01.862Z,149.77
2023-03-02T05:46:29.120Z,164.67
2023-03-02T05:48:56.026Z,155.27
2023-03-02T05:51:22.896Z,164.33
2023-03-02T05:53:49.801Z,164.47
2023-03-02T05:56:16.645Z,168.27
2023-03-02T05:58:43.570Z,173.73
2023-03-02T06:01:12.654Z,166.53
2023-03-02T06:03:42.086Z,157.73
2023-03-02T06:06:09.043Z,174.50
2023-03-02T06:08:41.042Z,188.10
2023-03-02T06:11:08.983Z,304.03
2023-03-02T06:13:36.173Z,337.13
2023-03-02T06:16:03.305Z,319.43
2023-03-02T06:18:30.253Z,309.77
2023-03-02T06:20:57.142Z,308.30
2023-03-02T06:23:24.016Z,318.23
2023-03-02T06:25:50.857Z,318.73
2023-03-02T06:28:22.072Z,298.83
2023-03-02T06:30:49.982Z,283.33
2023-03-02T06:33:19.040Z,278.57
2023-03-02T06:35:46.525Z,292.43
2023-03-02T06:38:13.505Z,283.20
2023-03-02T06:40:40.297Z,263.17
2023-03-02T06:43:07.156Z,233.37
2023-03-02T06:45:34.207Z,226.63
2023-03-02T06:48:02.146Z,226.93
2023-03-02T06:50:29.070Z,218.30
2023-03-02T06:52:56.158Z,241.57
2023-03-02T06:55:23.179Z,231.97
2023-03-02T06:57:50.345Z,189.27
2023-03-02T07:00:17.883Z,169.30
2023-03-02T07:02:45.489Z,180.60
2023-03-02T07:05:12.867Z,185.87
2023-03-02T07:07:39.892Z,198.87
2023-03-02T07:10:08.034Z,268.77
2023-03-02T07:12:35.310Z,254.70
2023-03-02T07:15:02.356Z,233.53
2023-03-02T07:17:29.207Z,233.00
2023-03-02T07:19:56.028Z,216.80
2023-03-02T07:22:22.900Z,220.27
2023-03-02T07:24:49.741Z,208.33
2023-03-02T07:27:16.608Z,227.53
2023-03-02T07:29:43.720Z,224.37
2023-03-02T07:32:12.435Z,251.40
2023-03-02T07:34:39.963Z,181.17
2023-03-02T07:37:06.874Z,157.87
2023-03-02T07:39:33.784Z,230.43
2023-03-02T07:42:02.169Z,172.23
2023-03-02T07:44:29.270Z,161.93
2023-03-02T07:46:56.167Z,179.40
2023-03-02T07:49:23.480Z,156.73
2023-03-02T07:51:50.367Z,154.35
2023-03-02T07:54:17.205Z,148.57
2023-03-02T07:56:44.137Z,174.75
2023-03-02T07:59:12.566Z,184.25
2023-03-02T08:01:39.706Z,165.90
2023-03-02T08:04:06.776Z,157.13
2023-03-02T08:06:33.621Z,146.60
2023-03-02T08:09:03.519Z,150.63
2023-03-02T08:11:30.653Z,136.80
2023-03-02T08:14:03.118Z,132.30
2023-03-02T08:16:30.724Z,143.85
2023-03-02T08:18:59.893Z,148.27
2023-03-02T08:21:27.588Z,154.57
2023-03-02T08:23:54.534Z,141.75
2023-03-02T08:26:21.784Z,155.13
2023-03-02T08:28:48.641Z,151.30
2023-03-02T08:31:16.036Z,160.48
2023-03-02T08:33:43.910Z,152.73
2023-03-02T08:36:16.610Z,153.77
2023-03-02T08:38:43.702Z,161.30
2023-03-02T08:41:17.468Z,163.80
2023-03-02T08:43:44.570Z,151.30
2023-03-02T08:46:13.346Z,157.30
2023-03-02T08:48:40.540Z,138.93
2023-03-02T08:51:10.553Z,136.65
2023-03-02T08:53:40.381Z,134.68
2023-03-02T08:56:20.220Z,143.10
2023-03-02T08:58:48.709Z,128.73
2023-03-02T09:01:23.957Z,124.22
2023-03-02T09:03:51.513Z,124.65
2023-03-02T09:06:18.607Z,112.55
2023-03-02T09:08:45.627Z,114.80
2023-03-02T09:11:12.581Z,106.43
2023-03-02T09:13:39.489Z,99.45
2023-03-02T09:16:08.587Z,98.90
2023-03-02T09:18:36.212Z,90.35
2023-03-02T09:21:03.265Z,83.93
2023-03-02T09:23:31.193Z,89.30
2023-03-02T09:25:58.226Z,81.72
2023-03-02T09:28:25.222Z,86.03
2023-03-02T09:30:54.878Z,70.97
2023-03-02T09:33:21.892Z,71.32
2023-03-02T09:35:49.498Z,74.50
2023-03-02T09:38:18.448Z,73.95
2023-03-02T09:41:21.070Z,71.05
2023-03-02T09:44:12.379Z,71.78
2023-03-02T09:47:03.443Z,74.05
2023-03-02T09:49:55.176Z,67.03
2023-03-02T09:52:40.508Z,75.15
2023-03-02T09:55:28.964Z,75.43
2023-03-02T09:57:56.364Z,80.85
2023-03-02T10:00:31.583Z,81.35
2023-03-02T10:03:14.902Z,76.85
2023-03-02T10:05:52.079Z,77.10
2023-03-02T10:08:29.340Z,84.45
2023-03-02T10:11:15.774Z,84.63
2023-03-02T10:14:18.056Z,84.47
2023-03-02T10:16:52.815Z,77.18
2023-03-02T10:19:25.249Z,69.03
2023-03-02T10:22:15.510Z,70.65
2023-03-02T10:25:00.785Z,65.25
2023-03-02T10:27:39.709Z,64.25
2023-03-02T10:30:37.923Z,64.72
2023-03-02T10:33:15.611Z,55.78
2023-03-02T10:35:54.059Z,58.17
2023-03-02T10:38:25.496Z,57.45
2023-03-02T10:41:00.764Z,56.25
2023-03-02T10:43:42.148Z,53.28
2023-03-02T10:46:11.632Z,53.50
2023-03-02T10:48:50.642Z,52.08
2023-03-02T10:51:28.403Z,50.40
2023-03-02T10:54:06.643Z,46.63
2023-03-02T10:56:34.819Z,45.72
2023-03-02T10:59:04.561Z,43.67
2023-03-02T11:01:32.049Z,47.38
2023-03-02T11:04:01.681Z,48.38
2023-03-02T11:06:29.884Z,41.00
2023-03-02T11:09:01.207Z,42.80
2023-03-02T11:11:28.522Z,44.42
2023-03-02T11:13:57.000Z,44.88
2023-03-02T11:16:32.281Z,42.53
2023-03-02T11:19:03.546Z,49.92
2023-03-02T11:21:43.540Z,46.55
2023-03-02T11:24:31.864Z,42.42
2023-03-02T11:27:12.953Z,44.53
2023-03-02T11:30:19.091Z,57.60
2023-03-02T11:32:46.313Z,42.95
2023-03-02T11:35:22.705Z,38.60
2023-03-02T11:37:55.746Z,42.03
2023-03-02T11:40:33.458Z,70.43
2023-03-02T11:43:04.952Z,43.80
2023-03-02T11:45:42.068Z,42.70
2023-03-02T11:48:23.364Z,45.75
2023-03-02T11:50:55.785Z,43.20
2023-03-02T11:53:26.937Z,43.45
2023-03-02T11:55:53.861Z,46.90
2023-03-02T11:58:26.651Z,45.58
2023-03-02T12:00:54.754Z,49.40
2023-03-02T12:03:36.496Z,51.70
2023-03-02T12:06:25.165Z,44.40
2023-03-02T12:09:08.018Z,47.80
2023-03-02T12:11:39.577Z,49.63
2023-03-02T12:14:43.695Z,50.13
2023-03-02T12:17:25.006Z,49.77
2023-03-02T12:20:06.960Z,46.23
2023-03-02T12:22:34.792Z,48.40
2023-03-02T12:25:06.884Z,49.13
2023-03-02T12:27:38.619Z,51.60
2023-03-02T12:30:26.788Z,49.90
2023-03-02T12:33:26.113Z,47.87
2023-03-02T12:36:25.886Z,49.13
2023-03-02T12:39:13.723Z,47.83
2023-03-02T12:41:56.718Z,44.87
2023-03-02T12:44:31.471Z,47.77
2023-03-02T12:46:59.589Z,49.90
2023-03-02T12:49:45.654Z,51.90
2023-03-02T12:52:39.216Z,55.93
2023-03-02T12:55:19.887Z,51.70
2023-03-02T12:57:50.421Z,47.60
2023-03-02T13:00:19.965Z,51.50
2023-03-02T13:02:52.695Z,47.73
2023-03-02T13:05:31.493Z,51.33
2023-03-02T13:08:05.991Z,52.33
2023-03-02T13:10:42.724Z,50.47
2023-03-02T13:13:22.606Z,50.63
2023-03-02T13:15:52.272Z,48.60
2023-03-02T13:18:21.302Z,47.97
2023-03-02T13:20:49.254Z,51.90
2023-03-02T13:23:17.861Z,48.43
2023-03-02T13:25:52.449Z,55.07
2023-03-02T13:28:28.353Z,52.17
2023-03-02T13:31:07.341Z,52.97
2023-03-02T13:33:41.415Z,50.03
2023-03-02T13:36:08.506Z,53.37
2023-03-02T13:38:37.919Z,51.97
2023-03-02T13:41:05.117Z,51.73
2023-03-02T13:43:41.332Z,60.40
2023-03-02T13:46:27.563Z,47.90
2023-03-02T13:49:12.584Z,41.53
2023-03-02T13:51:42.488Z,48.13
2023-03-02T13:54:22.280Z,44.90
2023-03-02T13:56:51.316Z,31.87
2023-03-02T13:59:21.220Z,39.00
2023-03-02T14:01:48.591Z,26.57
2023-03-02T14:04:18.150Z,31.23
2023-03-02T14:06:46.037Z,30.30
2023-03-02T14:09:13.504Z,35.30
2023-03-02T14:11:43.871Z,35.43
2023-03-02T14:14:21.118Z,35.47
2023-03-02T14:16:48.299Z,36.40
2023-03-02T14:19:18.412Z,34.77
2023-03-02T14:21:48.217Z,30.97
2023-03-02T14:24:15.185Z,58.63
2023-03-02T14:26:45.003Z,39.77
2023-03-02T14:29:26.143Z,33.03
2023-03-02T14:31:57.089Z,29.43
2023-03-02T14:34:23.993Z,33.93
2023-03-02T14:36:54.119Z,28.90
2023-03-02T14:39:41.201Z,26.43
2023-03-02T14:42:19.245Z,28.93
2023-03-02T14:44:47.773Z,28.67
2023-03-02T14:47:16.677Z,28.80
2023-03-02T14:49:43.909Z,34.17
2023-03-02T14:52:17.055Z,31.30
2023-03-02T14:54:59.867Z,35.90
2023-03-02T14:57:29.230Z,32.23
2023-03-02T14:59:59.946Z,31.70
2023-03-02T15:02:27.440Z,33.43
2023-03-02T15:04:57.423Z,37.80
2023-03-02T15:07:26.553Z,33.53
2023-03-02T15:09:53.944Z,35.37
2023-03-02T15:12:20.812Z,33.60
2023-03-02T15:14:47.638Z,32.90
2023-03-02T15:17:14.522Z,32.43
2023-03-02T15:19:41.395Z,32.00
2023-03-02T15:22:08.459Z,32.20
2023-03-02T15:24:35.278Z,30.63
2023-03-02T15:27:02.109Z,29.60
2023-03-02T15:29:28.961Z,27.83
2023-03-02T15:31:55.878Z,32.13
2023-03-02T15:34:22.899Z,32.67
2023-03-02T15:36:49.881Z,26.63
2023-03-02T15:39:17.133Z,25.90
2023-03-02T15:41:44.188Z,26.37
2023-03-02T15:44:22.246Z,24.00
2023-03-02T15:46:51.834Z,23.03
2023-03-02T15:49:24.529Z,24.53
2023-03-02T15:51:52.239Z,25.87
2023-03-02T15:54:19.372Z,21.37
2023-03-02T15:56:49.698Z,24.27
2023-03-02T15:59:16.565Z,21.63
2023-03-02T16:01:43.409Z,24.47
2023-03-02T16:04:10.653Z,24.97
2023-03-02T16:06:37.560Z,26.00
2023-03-02T16:09:05.139Z,21.50
2023-03-02T16:11:33.426Z,22.10
2023-03-02T16:14:00.264Z,22.87
2023-03-02T16:16:27.198Z,25.37
2023-03-02T16:18:56.445Z,21.20
2023-03-02T16:21:24.595Z,26.20
2023-03-02T16:23:52.663Z,27.87
2023-03-02T16:26:21.507Z,29.53
2023-03-02T16:28:48.890Z,25.13
2023-03-02T16:31:18.890Z,28.17
2023-03-02T16:33:46.989Z,25.60
2023-03-02T16:36:14.654Z,29.30
2023-03-02T16:38:41.548Z,26.73
2023-03-02T16:41:22.627Z,23.97
2023-03-02T16:43:54.516Z,25.93
2023-03-02T16:46:23.152Z,28.37
2023-03-02T16:48:50.584Z,42.97
2023-03-02T16:51:18.702Z,56.23
2023-03-02T16:53:46.352Z,63.33
2023-03-02T16:56:14.443Z,69.37
2023-03-02T16:58:42.149Z,85.57
2023-03-02T17:01:12.623Z,72.70
2023-03-02T17:03:39.699Z,60.33
2023-03-02T17:06:08.637Z,58.90
2023-03-02T17:08:35.779Z,48.23
2023-03-02T17:11:02.938Z,43.30
2023-03-02T17:13:29.792Z,37.37
2023-03-02T17:15:57.465Z,40.47
2023-03-02T17:18:27.401Z,33.07
2023-03-02T17:20:56.234Z,32.50
2023-03-02T17:23:23.346Z,37.13
2023-03-02T17:25:50.268Z,51.83
2023-03-02T17:28:17.225Z,54.07
2023-03-02T17:30:44.507Z,56.80
2023-03-02T17:33:11.658Z,67.90
2023-03-02T17:35:38.725Z,72.33
2023-03-02T17:38:06.414Z,73.97
2023-03-02T17:40:33.367Z,86.73
2023-03-02T17:43:00.215Z,97.00
2023-03-02T17:45:28.771Z,99.83
2023-03-02T17:47:57.327Z,104.77
2023-03-02T17:50:24.724Z,114.80
2023-03-02T17:52:52.041Z,117.30
2023-03-02T17:55:19.255Z,118.30
2023-03-02T17:57:46.164Z,125.97
2023-03-02T18:00:16.868Z,118.60
2023-03-02T18:02:43.724Z,123.63
2023-03-02T18:05:10.917Z,115.87
2023-03-02T18:07:37.970Z,122.93
2023-03-02T18:10:05.840Z,117.33
2023-03-02T18:12:33.330Z,122.63
2023-03-02T18:15:00.337Z,118.43
2023-03-02T18:17:27.553Z,126.37
2023-03-02T18:19:54.478Z,112.63
2023-03-02T18:22:22.167Z,125.53
2023-03-02T18:24:50.544Z,127.40
2023-03-02T18:27:17.663Z,119.90
2023-03-02T18:29:44.646Z,122.57
2023-03-02T18:32:14.565Z,122.97
2023-03-02T18:34:41.665Z,116.53
2023-03-02T18:37:08.990Z,121.13
2023-03-02T18:39:38.046Z,119.33
2023-03-02T18:42:06.214Z,120.83
2023-03-02T18:44:33.789Z,128.30
2023-03-02T18:47:01.003Z,128.33
2023-03-02T18:49:29.004Z,132.07
2023-03-02T18:51:56.874Z,129.70
2023-03-02T18:54:24.247Z,135.53
2023-03-02T18:56:51.261Z,147.70
2023-03-02T18:59:18.526Z,146.40
2023-03-02T19:01:46.327Z,140.83
2023-03-02T19:04:14.517Z,150.23
2023-03-02T19:06:42.618Z,151.07
2023-03-02T19:09:09.966Z,148.87
2023-03-02T19:11:37.499Z,145.10
2023-03-02T19:14:04.830Z,145.83
2023-03-02T19:16:32.427Z,142.27
2023-03-02T19:18:59.806Z,140.90
2023-03-02T19:21:27.214Z,147.27
2023-03-02T19:23:54.608Z,155.07
2023-03-02T19:26:21.897Z,156.13
2023-03-02T19:28:49.037Z,157.73
2023-03-02T19:31:16.488Z,159.97
2023-03-02T19:33:45.430Z,175.80
2023-03-02T19:36:13.063Z,178.57
2023-03-02T19:38:44.626Z,193.13
2023-03-02T19:41:15.675Z,186.90
2023-03-02T19:43:45.543Z,175.40
2023-03-02T19:46:14.086Z,172.20
2023-03-02T19:48:42.115Z,174.27
2023-03-02T19:51:09.790Z,187.70
2023-03-02T19:53:38.919Z,184.83
2023-03-02T19:56:08.526Z,177.30
2023-03-02T19:58:36.198Z,184.70
2023-03-02T20:01:04.577Z,185.30
2023-03-02T20:03:31.555Z,182.57
2023-03-02T20:05:59.678Z,178.50
2023-03-02T20:08:27.119Z,179.27
2023-03-02T20:10:54.515Z,176.73
2023-03-02T20:13:21.866Z,168.53
2023-03-02T20:15:49.233Z,172.13
2023-03-02T20:18:19.339Z,172.90
2023-03-02T20:20:47.390Z,183.63
2023-03-02T20:23:15.071Z,281.73
2023-03-02T20:25:42.566Z,394.40
2023-03-02T20:28:12.482Z,401.60
2023-03-02T20:30:43.342Z,301.00
2023-03-02T20:33:12.126Z,263.33
2023-03-02T20:35:41.329Z,670.50
2023-03-02T20:38:13.155Z,1053.77
2023-03-02T20:40:40.601Z,639.27
2023-03-02T20:43:07.842Z,459.63
2023-03-02T20:45:35.249Z,1373.03
2023-03-02T20:48:02.653Z,1244.63
2023-03-02T20:50:32.978Z,1117.13
2023-03-02T20:53:00.640Z,1358.10
2023-03-02T20:55:27.880Z,947.53
2023-03-02T20:57:55.751Z,849.57
2023-03-02T21:00:26.009Z,514.47
2023-03-02T21:02:53.020Z,502.17
2023-03-02T21:05:20.889Z,461.33
2023-03-02T21:07:49.108Z,362.27
2023-03-02T21:10:23.916Z,375.50
2023-03-02T21:12:51.320Z,323.73
2023-03-02T21:15:20.268Z,369.30
2023-03-02T21:17:47.792Z,473.57
2023-03-02T21:20:18.379Z,261.27
2023-03-02T21:22:46.224Z,257.30
2023-03-02T21:25:13.170Z,218.77
2023-03-02T21:27:41.186Z,196.77
2023-03-02T21:30:12.489Z,285.33
2023-03-02T21:32:41.306Z,248.03
2023-03-02T21:35:08.442Z,260.43
2023-03-02T21:37:35.738Z,215.10
2023-03-02T21:40:02.615Z,187.87
2023-03-02T21:42:30.025Z,167.07
2023-03-02T21:44:57.309Z,175.97
2023-03-02T21:47:24.597Z,185.03
2023-03-02T21:49:51.955Z,151.07
2023-03-02T21:52:19.238Z,161.43
2023-03-02T21:54:46.462Z,155.13
2023-03-02T21:57:13.720Z,141.80
2023-03-02T21:59:40.972Z,148.43
2023-03-02T22:02:08.307Z,147.23
2023-03-02T22:04:35.692Z,131.77
2023-03-02T22:07:02.612Z,128.40
2023-03-02T22:09:29.855Z,136.63
2023-03-02T22:11:58.118Z,158.97
2023-03-02T22:14:25.622Z,149.20
2023-03-02T22:16:52.819Z,149.97
2023-03-02T22:19:20.033Z,146.30
2023-03-02T22:21:50.884Z,148.90
2023-03-02T22:24:25.012Z,166.10
2023-03-02T22:27:16.712Z,174.27
2023-03-02T22:29:46.495Z,146.03
2023-03-02T22:32:17.429Z,149.37
2023-03-02T22:34:46.303Z,152.97
2023-03-02T22:37:22.485Z,152.00
2023-03-02T22:39:50.577Z,135.17
2023-03-02T22:42:20.358Z,148.23
2023-03-02T22:45:21.336Z,144.77
2023-03-02T22:47:51.528Z,142.63
2023-03-02T22:50:30.240Z,154.30
2023-03-02T22:52:58.304Z,146.20
2023-03-02T22:55:43.159Z,129.73
2023-03-02T22:58:43.829Z,157.83
2023-03-02T23:01:23.970Z,131.17
2023-03-02T23:03:58.141Z,115.33
2023-03-02T23:06:33.118Z,114.73
2023-03-02T23:09:04.324Z,133.30
2023-03-02T23:11:38.414Z,128.23
2023-03-02T23:14:46.741Z,140.27
2023-03-02T23:17:18.720Z,125.53
2023-03-02T23:19:45.728Z,134.47
2023-03-02T23:22:12.757Z,120.60
2023-03-02T23:24:39.737Z,122.63
2023-03-02T23:27:06.592Z,124.40
2023-03-02T23:29:33.467Z,122.50
2023-03-02T23:32:00.454Z,118.67
2023-03-02T23:34:31.096Z,136.37
2023-03-02T23:36:58.767Z,126.23
2023-03-02T23:39:26.555Z,147.43
2023-03-02T23:41:53.819Z,127.70
2023-03-02T23:44:21.215Z,158.63
2023-03-02T23:46:48.781Z,152.40
2023-03-02T23:49:16.059Z,132.70
2023-03-02T23:51:43.682Z,131.87
2023-03-02T23:54:11.036Z,125.50
2023-03-02T23:56:38.418Z,134.63
2023-03-02T23:59:05.668Z,133.73
